createdAt,value
2019-03-03T00:00:42.011Z,7.94
2019-03-03T00:03:12.489Z,7.82
2019-03-03T00:05:42.836Z,7.73
2019-03-03T00:08:13.151Z,7.75
2019-03-03T00:10:43.538Z,7.76
2019-03-03T00:13:13.896Z,7.82
2019-03-03T00:15:44.263Z,7.86
2019-03-03T00:18:14.639Z,7.92
2019-03-03T00:20:45.834Z,7.88
2019-03-03T00:23:16.212Z,7.85
2019-03-03T00:25:46.587Z,7.87
2019-03-03T00:28:16.963Z,7.95
2019-03-03T00:30:47.321Z,7.91
2019-03-03T00:33:17.691Z,7.78
2019-03-03T00:35:48.069Z,7.74
2019-03-03T00:38:25.843Z,7.79
2019-03-03T00:40:57.975Z,7.61
2019-03-03T00:43:30.157Z,7.32
2019-03-03T00:46:02.163Z,7.53
2019-03-03T00:48:46.393Z,7.56
2019-03-03T00:51:24.395Z,7.71
2019-03-03T00:54:11.488Z,7.69
2019-03-03T00:56:52.530Z,7.71
2019-03-03T00:59:24.519Z,7.70
2019-03-03T01:01:59.510Z,7.51
2019-03-03T01:04:34.439Z,7.56
2019-03-03T01:07:15.618Z,7.55
2019-03-03T01:09:59.609Z,7.62
2019-03-03T01:12:37.543Z,7.53
2019-03-03T01:15:17.205Z,7.62
2019-03-03T01:17:49.222Z,7.74
2019-03-03T01:20:37.717Z,7.67
2019-03-03T01:23:25.095Z,7.63
2019-03-03T01:25:55.958Z,7.24
2019-03-03T01:28:26.312Z,7.39
2019-03-03T01:30:56.588Z,7.33
2019-03-03T01:33:27.029Z,7.16
2019-03-03T01:35:57.455Z,6.95
2019-03-03T01:38:27.736Z,6.96
2019-03-03T01:40:58.093Z,6.92
2019-03-03T01:43:28.387Z,6.84
2019-03-03T01:46:01.080Z,7.03
2019-03-03T01:48:31.458Z,7.18
2019-03-03T01:51:01.833Z,7.16
2019-03-03T01:53:32.213Z,7.12
2019-03-03T01:56:02.505Z,7.14
2019-03-03T01:58:32.782Z,7.13
2019-03-03T02:01:03.368Z,7.13
2019-03-03T02:03:35.324Z,7.18
2019-03-03T02:06:07.295Z,7.15
2019-03-03T02:08:37.609Z,7.14
2019-03-03T02:11:08.012Z,7.15
2019-03-03T02:13:38.342Z,7.17
2019-03-03T02:16:09.693Z,7.13
2019-03-03T02:18:39.985Z,7.13
2019-03-03T02:21:10.283Z,7.12
2019-03-03T02:23:40.577Z,7.15
2019-03-03T02:26:10.904Z,7.15
2019-03-03T02:28:41.186Z,7.20
2019-03-03T02:31:11.482Z,7.14
2019-03-03T02:33:42.958Z,7.20
2019-03-03T02:36:14.565Z,7.19
2019-03-03T02:38:45.154Z,7.38
2019-03-03T02:41:15.464Z,7.41
2019-03-03T02:43:45.761Z,7.44
2019-03-03T02:46:16.034Z,7.43
2019-03-03T02:48:46.311Z,7.51
2019-03-03T02:51:16.683Z,7.61
2019-03-03T02:53:47.061Z,7.62
2019-03-03T02:56:17.396Z,7.66
2019-03-03T02:58:47.800Z,7.68
2019-03-03T03:01:25.461Z,7.64
2019-03-03T03:03:55.769Z,7.66
2019-03-03T03:06:45.788Z,7.67
2019-03-03T03:09:20.828Z,7.70
2019-03-03T03:11:52.836Z,7.74
2019-03-03T03:14:24.876Z,7.85
2019-03-03T03:17:02.681Z,7.78
2019-03-03T03:19:37.621Z,7.73
2019-03-03T03:22:15.594Z,7.70
2019-03-03T03:24:53.379Z,7.87
2019-03-03T03:27:31.137Z,7.67
2019-03-03T03:30:05.790Z,7.84
2019-03-03T03:32:37.761Z,7.82
2019-03-03T03:35:19.730Z,7.89
2019-03-03T03:37:51.733Z,7.94
2019-03-03T03:40:23.648Z,7.98
2019-03-03T03:42:55.594Z,7.91
2019-03-03T03:45:36.461Z,8.06
2019-03-03T03:48:24.921Z,8.02
2019-03-03T03:51:03.076Z,7.92
2019-03-03T03:53:50.036Z,7.96
2019-03-03T03:56:21.958Z,7.96
2019-03-03T03:59:09.006Z,7.47
2019-03-03T04:01:40.967Z,7.54
2019-03-03T04:04:15.654Z,7.52
2019-03-03T04:06:47.693Z,7.58
2019-03-03T04:09:37.594Z,7.61
2019-03-03T04:12:16.594Z,7.78
2019-03-03T04:14:48.553Z,7.82
2019-03-03T04:17:30.100Z,7.79
2019-03-03T04:20:02.046Z,7.84
2019-03-03T04:22:50.929Z,7.90
2019-03-03T04:25:24.183Z,7.65
2019-03-03T04:28:02.417Z,7.48
2019-03-03T04:30:40.247Z,7.76
2019-03-03T04:33:24.349Z,7.49
2019-03-03T04:35:56.275Z,7.58
2019-03-03T04:38:44.394Z,7.41
2019-03-03T04:41:33.459Z,7.37
2019-03-03T04:44:17.732Z,7.43
2019-03-03T04:46:49.749Z,7.69
2019-03-03T04:49:30.488Z,7.83
2019-03-03T04:52:08.493Z,7.85
2019-03-03T04:54:56.641Z,7.93
2019-03-03T04:57:40.988Z,7.97
2019-03-03T05:00:32.124Z,7.99
2019-03-03T05:03:04.189Z,7.97
2019-03-03T05:05:39.030Z,7.85
2019-03-03T05:08:10.971Z,7.92
2019-03-03T05:10:54.762Z,7.83
2019-03-03T05:13:29.732Z,7.86
2019-03-03T05:16:17.826Z,7.84
2019-03-03T05:18:49.757Z,7.69
2019-03-03T05:21:20.032Z,7.94
2019-03-03T05:23:50.612Z,7.97
2019-03-03T05:26:20.939Z,7.92
2019-03-03T05:28:51.589Z,7.97
2019-03-03T05:31:22.019Z,7.90
2019-03-03T05:33:52.419Z,7.81
2019-03-03T05:36:22.772Z,7.82
2019-03-03T05:38:53.097Z,7.74
2019-03-03T05:41:23.393Z,7.65
2019-03-03T05:43:53.749Z,7.87
2019-03-03T05:46:25.147Z,7.84
2019-03-03T05:48:55.576Z,7.90
2019-03-03T05:51:26.255Z,7.77
2019-03-03T05:53:58.524Z,7.73
2019-03-03T05:56:29.012Z,7.77
2019-03-03T05:59:00.271Z,7.93
2019-03-03T06:01:30.568Z,7.94
2019-03-03T06:04:01.152Z,7.86
2019-03-03T06:06:32.639Z,7.82
2019-03-03T06:09:03.397Z,7.62
2019-03-03T06:11:35.196Z,8.09
2019-03-03T06:14:05.493Z,7.98
2019-03-03T06:16:35.772Z,7.76
2019-03-03T06:19:06.156Z,8.12
2019-03-03T06:21:36.442Z,8.69
2019-03-03T06:24:06.716Z,8.70
2019-03-03T06:26:37.020Z,8.96
2019-03-03T06:29:07.371Z,8.31
2019-03-03T06:31:37.712Z,8.31
2019-03-03T06:34:08.071Z,8.11
2019-03-03T06:36:38.385Z,7.91
2019-03-03T06:39:08.816Z,8.27
2019-03-03T06:41:39.260Z,8.00
2019-03-03T06:44:09.552Z,8.05
2019-03-03T06:46:39.878Z,7.80
2019-03-03T06:49:10.169Z,7.91
2019-03-03T06:51:40.757Z,7.82
2019-03-03T06:54:11.204Z,7.93
2019-03-03T06:56:41.500Z,7.98
2019-03-03T06:59:11.847Z,8.10
2019-03-03T07:01:42.167Z,8.07
2019-03-03T07:04:12.551Z,8.08
2019-03-03T07:06:42.864Z,8.11
2019-03-03T07:09:14.292Z,7.95
2019-03-03T07:11:44.803Z,7.90
2019-03-03T07:14:15.169Z,7.90
2019-03-03T07:16:45.550Z,7.83
2019-03-03T07:19:15.859Z,7.92
2019-03-03T07:21:46.154Z,8.17
2019-03-03T07:24:16.660Z,8.29
2019-03-03T07:26:47.137Z,8.36
2019-03-03T07:29:17.538Z,8.46
2019-03-03T07:31:47.835Z,8.45
2019-03-03T07:34:18.308Z,8.69
2019-03-03T07:36:48.616Z,8.56
2019-03-03T07:39:19.035Z,8.45
2019-03-03T07:41:49.457Z,8.47
2019-03-03T07:44:19.812Z,8.33
2019-03-03T07:46:50.220Z,8.37
2019-03-03T07:49:21.018Z,8.28
2019-03-03T07:51:51.424Z,8.18
2019-03-03T07:54:21.801Z,8.38
2019-03-03T07:56:52.150Z,8.47
2019-03-03T07:59:23.008Z,8.41
2019-03-03T08:01:53.817Z,8.58
2019-03-03T08:04:25.003Z,8.61
2019-03-03T08:06:56.048Z,8.75
2019-03-03T08:09:26.461Z,8.75
2019-03-03T08:11:56.810Z,9.07
2019-03-03T08:14:27.484Z,9.23
2019-03-03T08:16:57.956Z,9.14
2019-03-03T08:19:29.263Z,9.06
2019-03-03T08:21:59.617Z,9.36
2019-03-03T08:24:30.010Z,9.47
2019-03-03T08:27:00.443Z,9.57
2019-03-03T08:29:32.263Z,9.53
2019-03-03T08:32:02.541Z,9.69
2019-03-03T08:34:32.822Z,10.00
2019-03-03T08:37:03.206Z,9.93
2019-03-03T08:39:33.599Z,9.81
2019-03-03T08:42:22.215Z,9.80
2019-03-03T08:44:54.418Z,9.82
2019-03-03T08:47:33.269Z,9.67
2019-03-03T08:50:08.302Z,9.79
2019-03-03T08:52:43.394Z,9.92
2019-03-03T08:55:16.476Z,9.82
2019-03-03T08:57:48.444Z,9.90
2019-03-03T09:00:26.399Z,10.04
2019-03-03T09:03:08.886Z,10.11
2019-03-03T09:05:41.049Z,10.21
2019-03-03T09:08:13.157Z,10.27
2019-03-03T09:10:45.312Z,10.15
2019-03-03T09:13:32.477Z,10.08
2019-03-03T09:16:14.314Z,10.14
2019-03-03T09:18:48.745Z,10.30
2019-03-03T09:21:36.880Z,10.21
2019-03-03T09:24:21.111Z,10.03
2019-03-03T09:26:53.368Z,10.10
2019-03-03T09:29:28.030Z,10.07
2019-03-03T09:32:05.898Z,10.07
2019-03-03T09:34:37.976Z,9.91
2019-03-03T09:37:10.072Z,10.00
2019-03-03T09:39:47.835Z,9.99
2019-03-03T09:42:22.979Z,10.23
2019-03-03T09:44:55.038Z,10.52
2019-03-03T09:47:40.293Z,10.76
2019-03-03T09:50:21.828Z,11.05
2019-03-03T09:52:54.083Z,11.17
2019-03-03T09:55:28.721Z,11.37
2019-03-03T09:58:07.200Z,11.60
2019-03-03T10:00:55.461Z,11.66
2019-03-03T10:03:27.590Z,11.70
2019-03-03T10:06:11.667Z,11.73
2019-03-03T10:08:46.646Z,11.69
2019-03-03T10:11:21.549Z,11.68
2019-03-03T10:13:53.905Z,11.64
2019-03-03T10:16:36.004Z,11.45
2019-03-03T10:19:07.963Z,11.29
2019-03-03T10:21:41.263Z,11.25
2019-03-03T10:24:25.389Z,11.38
2019-03-03T10:27:13.778Z,11.27
2019-03-03T10:30:02.204Z,11.27
2019-03-03T10:32:36.988Z,11.23
2019-03-03T10:35:22.224Z,11.13
2019-03-03T10:38:07.286Z,10.94
2019-03-03T10:40:54.635Z,10.80
2019-03-03T10:43:26.685Z,10.69
2019-03-03T10:46:07.512Z,10.65
2019-03-03T10:48:43.807Z,10.71
2019-03-03T10:51:32.763Z,10.69
2019-03-03T10:54:07.560Z,10.70
2019-03-03T10:56:39.875Z,10.80
2019-03-03T10:59:15.396Z,10.78
2019-03-03T11:01:47.675Z,10.83
2019-03-03T11:04:20.182Z,10.86
2019-03-03T11:07:09.381Z,10.82
2019-03-03T11:09:41.527Z,10.96
2019-03-03T11:12:30.783Z,11.09
2019-03-03T11:15:05.790Z,11.19
2019-03-03T11:17:46.469Z,11.31
2019-03-03T11:20:24.328Z,11.39
2019-03-03T11:23:11.779Z,11.43
2019-03-03T11:26:00.240Z,11.55
2019-03-03T11:28:36.165Z,11.71
2019-03-03T11:31:25.488Z,11.83
2019-03-03T11:34:13.098Z,11.95
2019-03-03T11:36:47.699Z,11.88
2019-03-03T11:39:19.653Z,11.96
2019-03-03T11:42:05.090Z,12.06
2019-03-03T11:44:53.516Z,12.18
2019-03-03T11:47:42.056Z,12.11
2019-03-03T11:50:14.709Z,12.04
2019-03-03T11:52:47.718Z,12.00
2019-03-03T11:55:20.524Z,11.93
2019-03-03T11:57:53.264Z,11.98
2019-03-03T12:00:36.788Z,12.03
2019-03-03T12:03:18.413Z,12.03
2019-03-03T12:05:53.668Z,12.06
2019-03-03T12:08:32.449Z,12.10
2019-03-03T12:11:21.104Z,12.22
2019-03-03T12:13:59.352Z,12.26
2019-03-03T12:16:31.697Z,12.39
2019-03-03T12:19:17.027Z,12.39
2019-03-03T12:21:53.327Z,12.43
2019-03-03T12:24:40.485Z,12.49
2019-03-03T12:27:18.267Z,12.50
2019-03-03T12:29:50.326Z,12.55
2019-03-03T12:32:34.100Z,12.58
2019-03-03T12:35:08.012Z,12.62
2019-03-03T12:37:46.070Z,12.49
2019-03-03T12:40:26.545Z,12.41
2019-03-03T12:43:01.401Z,12.54
2019-03-03T12:45:39.371Z,12.57
2019-03-03T12:48:11.492Z,12.57
2019-03-03T12:51:01.657Z,12.51
2019-03-03T12:53:47.354Z,12.44
2019-03-03T12:56:31.333Z,12.30
2019-03-03T12:59:15.298Z,12.27
2019-03-03T13:01:56.350Z,12.22
2019-03-03T13:04:43.725Z,12.20
2019-03-03T13:07:21.458Z,12.17
2019-03-03T13:10:00.092Z,12.21
2019-03-03T13:12:34.098Z,12.26
2019-03-03T13:15:09.423Z,12.07
2019-03-03T13:17:48.446Z,12.10
2019-03-03T13:20:38.175Z,12.04
2019-03-03T13:23:10.215Z,11.98
2019-03-03T13:25:58.513Z,11.98
2019-03-03T13:28:39.953Z,11.93
2019-03-03T13:31:21.430Z,11.87
2019-03-03T13:33:56.748Z,11.73
2019-03-03T13:36:28.764Z,11.59
2019-03-03T13:39:07.250Z,11.39
2019-03-03T13:41:43.766Z,11.28
2019-03-03T13:44:14.322Z,11.24
2019-03-03T13:46:45.590Z,11.13
2019-03-03T13:49:16.121Z,10.99
2019-03-03T13:51:46.582Z,10.99
2019-03-03T13:54:16.955Z,10.94
2019-03-03T13:56:49.783Z,10.83
2019-03-03T13:59:20.525Z,10.76
2019-03-03T14:01:51.209Z,10.65
2019-03-03T14:04:21.521Z,10.68
2019-03-03T14:06:52.820Z,10.63
2019-03-03T14:09:23.880Z,10.57
2019-03-03T14:11:55.274Z,10.58
2019-03-03T14:14:25.852Z,10.57
2019-03-03T14:16:56.276Z,10.57
2019-03-03T14:19:26.706Z,10.47
2019-03-03T14:21:57.430Z,10.53
2019-03-03T14:24:27.984Z,10.45
2019-03-03T14:26:59.845Z,10.45
2019-03-03T14:29:31.739Z,10.36
2019-03-03T14:32:02.932Z,10.35
2019-03-03T14:34:33.489Z,10.44
2019-03-03T14:37:03.887Z,10.38
2019-03-03T14:39:37.050Z,10.45
2019-03-03T14:42:07.712Z,10.45
2019-03-03T14:44:38.397Z,10.26
2019-03-03T14:47:08.714Z,10.28
2019-03-03T14:49:39.471Z,10.26
2019-03-03T14:52:09.803Z,10.30
2019-03-03T14:54:40.111Z,10.19
2019-03-03T14:57:11.002Z,10.28
2019-03-03T14:59:41.722Z,10.31
2019-03-03T15:02:12.630Z,10.31
2019-03-03T15:04:43.439Z,10.39
2019-03-03T15:07:14.297Z,10.35
2019-03-03T15:09:45.208Z,10.45
2019-03-03T15:12:16.391Z,10.38
2019-03-03T15:14:47.568Z,10.38
2019-03-03T15:17:19.752Z,10.38
2019-03-03T15:19:52.924Z,10.34
2019-03-03T15:22:25.588Z,10.45
2019-03-03T15:24:57.105Z,10.37
2019-03-03T15:27:27.907Z,10.27
2019-03-03T15:29:58.281Z,10.18
2019-03-03T15:32:28.753Z,10.20
2019-03-03T15:35:00.581Z,10.29
2019-03-03T15:37:30.902Z,10.14
2019-03-03T15:40:01.408Z,10.19
2019-03-03T15:42:32.564Z,10.12
2019-03-03T15:45:07.155Z,10.11
2019-03-03T15:47:38.047Z,10.18
2019-03-03T15:50:10.412Z,10.25
2019-03-03T15:52:40.996Z,10.09
2019-03-03T15:55:13.651Z,10.13
2019-03-03T15:57:44.739Z,10.10
2019-03-03T16:00:21.552Z,10.05
2019-03-03T16:02:51.934Z,10.01
2019-03-03T16:05:23.679Z,10.10
2019-03-03T16:07:55.835Z,10.07
2019-03-03T16:10:26.998Z,10.10
2019-03-03T16:12:57.437Z,10.21
2019-03-03T16:15:28.422Z,10.12
2019-03-03T16:18:03.187Z,10.13
2019-03-03T16:20:35.399Z,10.21
2019-03-03T16:23:06.162Z,10.12
2019-03-03T16:25:36.607Z,10.27
2019-03-03T16:28:07.042Z,10.26
2019-03-03T16:30:37.430Z,10.27
2019-03-03T16:33:07.826Z,10.21
2019-03-03T16:35:41.932Z,10.18
2019-03-03T16:38:12.617Z,10.17
2019-03-03T16:40:46.198Z,10.15
2019-03-03T16:43:20.491Z,9.95
2019-03-03T16:45:51.154Z,10.13
2019-03-03T16:48:22.250Z,10.14
2019-03-03T16:50:52.920Z,10.07
2019-03-03T16:53:24.707Z,10.02
2019-03-03T16:55:55.439Z,10.06
2019-03-03T16:58:26.611Z,10.09
2019-03-03T17:00:57.108Z,9.96
2019-03-03T17:03:27.508Z,9.90
2019-03-03T17:06:00.156Z,9.89
2019-03-03T17:08:31.685Z,9.88
2019-03-03T17:11:02.033Z,10.09
2019-03-03T17:13:32.393Z,10.02
2019-03-03T17:16:04.164Z,9.98
2019-03-03T17:18:39.674Z,9.93
2019-03-03T17:21:13.084Z,10.01
2019-03-03T17:23:44.201Z,10.09
2019-03-03T17:26:15.338Z,10.11
2019-03-03T17:28:49.506Z,10.08
2019-03-03T17:31:21.945Z,10.15
2019-03-03T17:33:54.056Z,10.20
2019-03-03T17:36:26.497Z,9.93
2019-03-03T17:38:59.335Z,10.03
2019-03-03T17:41:29.985Z,10.07
2019-03-03T17:44:01.845Z,10.05
2019-03-03T17:46:32.311Z,9.87
2019-03-03T17:49:03.164Z,9.96
2019-03-03T17:51:34.002Z,10.00
2019-03-03T17:54:04.956Z,9.99
2019-03-03T17:56:35.933Z,9.94
2019-03-03T17:59:06.276Z,9.95
2019-03-03T18:01:37.933Z,10.03
2019-03-03T18:04:09.604Z,10.09
2019-03-03T18:06:41.687Z,10.21
2019-03-03T18:09:12.261Z,10.12
2019-03-03T18:11:43.378Z,10.19
2019-03-03T18:14:14.078Z,10.05
2019-03-03T18:16:46.588Z,9.98
2019-03-03T18:19:17.013Z,9.97
2019-03-03T18:21:47.869Z,9.93
2019-03-03T18:24:18.908Z,9.96
2019-03-03T18:26:49.266Z,9.99
2019-03-03T18:29:20.079Z,10.00
2019-03-03T18:31:50.455Z,10.00
2019-03-03T18:34:21.150Z,9.86
2019-03-03T18:36:51.602Z,9.94
2019-03-03T18:39:22.156Z,10.08
2019-03-03T18:41:53.880Z,10.05
2019-03-03T18:44:25.006Z,10.09
2019-03-03T18:46:55.678Z,10.15
2019-03-03T18:49:26.145Z,10.20
2019-03-03T18:51:57.057Z,10.22
2019-03-03T18:54:28.085Z,10.18
2019-03-03T18:57:00.892Z,10.19
2019-03-03T18:59:32.943Z,10.19
2019-03-03T19:02:03.675Z,10.19
2019-03-03T19:04:34.089Z,10.22
2019-03-03T19:07:05.675Z,10.15
2019-03-03T19:09:36.235Z,10.22
2019-03-03T19:12:06.628Z,10.25
2019-03-03T19:14:37.281Z,10.30
2019-03-03T19:17:07.738Z,10.16
2019-03-03T19:19:38.176Z,10.11
2019-03-03T19:22:08.914Z,10.17
2019-03-03T19:24:39.573Z,10.18
2019-03-03T19:27:10.258Z,10.27
2019-03-03T19:29:42.450Z,10.24
2019-03-03T19:32:13.701Z,10.16
2019-03-03T19:34:45.137Z,10.19
2019-03-03T19:37:17.071Z,10.25
2019-03-03T19:39:50.039Z,10.28
2019-03-03T19:42:20.726Z,10.19
2019-03-03T19:44:51.340Z,10.18
2019-03-03T19:47:22.270Z,10.18
2019-03-03T19:49:53.024Z,10.12
2019-03-03T19:52:23.401Z,10.18
2019-03-03T19:54:53.830Z,10.17
2019-03-03T19:57:24.268Z,10.24
2019-03-03T19:59:55.566Z,10.22
2019-03-03T20:02:26.518Z,10.20
2019-03-03T20:04:58.423Z,10.24
2019-03-03T20:07:29.062Z,10.19
2019-03-03T20:09:59.959Z,10.20
2019-03-03T20:12:30.464Z,10.04
2019-03-03T20:15:03.758Z,10.07
2019-03-03T20:17:35.683Z,9.91
2019-03-03T20:20:11.348Z,10.06
2019-03-03T20:22:42.007Z,10.17
2019-03-03T20:25:12.322Z,10.19
2019-03-03T20:27:43.828Z,10.09
2019-03-03T20:30:17.032Z,10.07
2019-03-03T20:32:47.530Z,10.15
2019-03-03T20:35:18.884Z,10.08
2019-03-03T20:37:49.301Z,10.01
2019-03-03T20:40:25.603Z,10.04
2019-03-03T20:42:56.508Z,9.98
2019-03-03T20:45:31.883Z,9.95
2019-03-03T20:48:03.436Z,10.03
2019-03-03T20:50:33.806Z,10.06
2019-03-03T20:53:04.166Z,10.00
2019-03-03T20:55:35.088Z,9.96
2019-03-03T20:58:05.440Z,9.99
2019-03-03T21:00:39.695Z,9.87
2019-03-03T21:03:10.200Z,9.83
2019-03-03T21:05:42.052Z,9.90
2019-03-03T21:08:12.848Z,9.78
2019-03-03T21:10:43.375Z,9.90
2019-03-03T21:13:16.091Z,9.75
2019-03-03T21:15:46.446Z,9.85
2019-03-03T21:18:18.449Z,9.97
2019-03-03T21:20:50.850Z,9.91
2019-03-03T21:23:21.610Z,9.98
2019-03-03T21:25:51.915Z,10.09
2019-03-03T21:28:22.313Z,9.94
2019-03-03T21:30:53.615Z,9.94
2019-03-03T21:33:24.051Z,9.87
2019-03-03T21:35:54.406Z,9.77
2019-03-03T21:38:24.767Z,9.75
2019-03-03T21:40:55.228Z,9.82
2019-03-03T21:43:25.912Z,9.91
2019-03-03T21:45:56.355Z,9.84
2019-03-03T21:48:26.629Z,9.90
2019-03-03T21:50:57.244Z,9.87
2019-03-03T21:53:27.596Z,9.93
2019-03-03T21:55:57.950Z,9.89
2019-03-03T21:58:28.231Z,9.90
2019-03-03T22:00:58.500Z,9.92
2019-03-03T22:03:28.900Z,9.96
2019-03-03T22:05:59.273Z,10.02
2019-03-03T22:08:29.621Z,9.90
2019-03-03T22:10:59.958Z,9.98
2019-03-03T22:13:30.570Z,10.01
2019-03-03T22:16:00.878Z,9.92
2019-03-03T22:18:32.560Z,9.96
2019-03-03T22:21:02.968Z,9.86
2019-03-03T22:23:33.254Z,10.19
2019-03-03T22:26:03.588Z,10.07
2019-03-03T22:28:33.882Z,10.05
2019-03-03T22:31:04.143Z,10.13
2019-03-03T22:33:34.439Z,10.14
2019-03-03T22:36:04.719Z,10.06
2019-03-03T22:38:35.371Z,10.13
2019-03-03T22:41:05.653Z,10.14
2019-03-03T22:43:35.950Z,10.12
2019-03-03T22:46:07.571Z,10.19
2019-03-03T22:48:37.933Z,10.13
2019-03-03T22:51:08.231Z,10.16
2019-03-03T22:53:38.495Z,10.25
2019-03-03T22:56:08.791Z,10.16
2019-03-03T22:58:39.126Z,10.31
2019-03-03T23:01:12.822Z,10.25
2019-03-03T23:04:08.158Z,10.27
2019-03-03T23:06:47.979Z,10.33
2019-03-03T23:09:47.333Z,10.23
2019-03-03T23:12:43.760Z,10.21
2019-03-03T23:15:34.106Z,10.35
2019-03-03T23:18:27.507Z,10.40
2019-03-03T23:21:12.727Z,10.43
2019-03-03T23:24:13.404Z,10.52
2019-03-03T23:26:43.762Z,10.45
2019-03-03T23:29:14.132Z,10.45
2019-03-03T23:31:44.474Z,10.47
2019-03-03T23:34:14.836Z,10.43
2019-03-03T23:36:46.620Z,10.55
2019-03-03T23:39:18.258Z,10.56
2019-03-03T23:41:48.583Z,10.41
2019-03-03T23:44:18.955Z,10.21
2019-03-03T23:46:49.310Z,10.24
2019-03-03T23:49:19.683Z,10.30
2019-03-03T23:51:50.017Z,10.21
2019-03-03T23:54:20.374Z,10.34
2019-03-03T23:56:52.359Z,10.23
2019-03-03T23:59:22.702Z,10.42
